Shamong Township, New Jersey
Current Conditions -  °F | °C
As of 2:54 AM on Friday 19 Dec 2014 (Local Time) from KVAY Reporting Station
Overcast Overcast  
Wind Chill: 32°   Ceiling: 4100
Heat Index: 37°   Visibility: 10mi
Dew Point: 25°   Wind: 6mph
Humidity: 62%   Direction: 270°W
Pressure: 30.03"   Gusts: NA
Location:  39.7955°N, 74.6301°W
Report Text: KVAY 190754Z AUTO 27005KT 10SM OVC041 03/M04 A3003 RMK AO2 SLP169 T00281039
Loading
Personal Weather Stations






























Interactive Weather Map New forecast layout! Learn more

10-Day Weather Forecast

Advertisements
Track Severe Weather on mobile